Time;durP1;ratioP1;P1;durP2;ratioP2;P2;SDS_P1;SDS_P2;PMS_P1;PMS_P2;Temp;Humidity;BMP_temperature;BMP_pressure;BME280_temperature;BME280_humidity;BME280_pressure;Samples;Min_cycle;Max_cycle;Signal;HPM_P1;HPM_P2
2022/04/04 00:01:32;;;;;;;6.60;2.38;;;;;;;1.48;34.45;97796.03;4971475;28;20050;-74
2022/04/04 00:03:58;;;;;;;6.22;2.22;;;;;;;1.44;34.63;97793.09;4972954;28;20110;-75
2022/04/04 00:06:27;;;;;;;6.43;2.40;;;;;;;1.45;34.54;97801.97;4971218;28;20050;-73
2022/04/04 00:08:55;;;;;;;6.10;2.40;;;;;;;1.48;34.60;97796.88;4969746;28;20050;-74
2022/04/04 00:11:21;;;;;;;8.82;2.28;;;;;;;1.50;34.58;97792.03;4957990;28;20051;-74
2022/04/04 00:13:47;;;;;;;6.70;2.50;;;;;;;1.40;34.41;97791.97;4960048;28;20055;-74
2022/04/04 00:16:13;;;;;;;4.88;2.03;;;;;;;1.48;34.44;97806.81;4960053;28;20463;-74
2022/04/04 00:18:41;;;;;;;5.18;2.10;;;;;;;1.42;34.55;97806.00;4955594;28;20054;-74
2022/04/04 00:21:07;;;;;;;7.82;2.22;;;;;;;1.44;34.52;97809.25;4971008;28;20046;-74
2022/04/04 00:23:33;;;;;;;5.57;2.03;;;;;;;1.39;34.56;97811.91;4954955;28;20050;-74
2022/04/04 00:26:00;;;;;;;5.82;2.00;;;;;;;1.33;34.78;97805.72;4969205;28;20051;-74
2022/04/04 00:28:27;;;;;;;6.88;2.17;;;;;;;1.36;34.79;97815.13;4958687;28;20070;-74
2022/04/04 00:30:53;;;;;;;6.00;2.10;;;;;;;1.34;34.78;97810.03;4971779;28;20126;-72
2022/04/04 00:33:19;;;;;;;5.05;2.00;;;;;;;1.32;34.75;97814.84;4959754;28;20054;-75
2022/04/04 00:35:45;;;;;;;6.25;2.22;;;;;;;1.29;34.67;97811.88;4964465;28;20504;-74
2022/04/04 00:38:12;;;;;;;5.28;1.92;;;;;;;1.26;34.90;97810.50;4930883;28;20142;-74
2022/04/04 00:40:39;;;;;;;5.30;1.85;;;;;;;1.26;34.82;97815.91;4970782;28;20042;-74
2022/04/04 00:43:06;;;;;;;5.70;2.20;;;;;;;1.25;34.88;97816.97;4969921;28;20080;-74
2022/04/04 00:45:32;;;;;;;5.45;1.98;;;;;;;1.17;34.73;97801.31;4968983;28;20073;-74
2022/04/04 00:47:58;;;;;;;6.93;2.10;;;;;;;1.20;34.71;97809.69;4977444;28;20071;-73
2022/04/04 00:50:25;;;;;;;5.18;2.00;;;;;;;1.21;34.77;97807.81;4965160;28;20094;-75
2022/04/04 00:52:52;;;;;;;5.10;1.90;;;;;;;1.16;34.77;97805.06;4981908;28;20066;-73
2022/04/04 00:55:19;;;;;;;6.30;2.20;;;;;;;1.21;34.43;97818.56;4971987;28;20071;-73
2022/04/04 00:57:46;;;;;;;4.35;1.80;;;;;;;1.16;34.90;97816.66;4959205;28;20059;-74
2022/04/04 01:00:14;;;;;;;6.00;2.08;;;;;;;1.18;35.01;97817.22;4953826;28;20514;-74
2022/04/04 01:02:41;;;;;;;7.53;2.15;;;;;;;1.15;34.85;97822.31;4969800;28;20074;-75
2022/04/04 01:05:09;;;;;;;5.63;2.07;;;;;;;1.12;35.07;97818.28;4985632;28;20050;-75
2022/04/04 01:07:37;;;;;;;8.77;2.20;;;;;;;1.13;35.21;97817.19;4964187;28;20051;-75
2022/04/04 01:10:06;;;;;;;4.63;1.80;;;;;;;1.11;35.13;97813.97;4968559;28;20055;-75
2022/04/04 01:12:32;;;;;;;6.05;1.90;;;;;;;1.09;35.13;97824.97;4947804;28;20047;-75
2022/04/04 01:14:59;;;;;;;5.68;2.30;;;;;;;1.09;35.20;97824.97;4969106;28;20055;-76
2022/04/04 01:17:27;;;;;;;7.32;2.10;;;;;;;1.05;35.11;97809.59;4978740;28;20050;-76
2022/04/04 01:19:56;;;;;;;8.70;2.17;;;;;;;1.00;35.31;97796.91;4956707;28;20142;-72
2022/04/04 01:22:24;;;;;;;6.97;2.10;;;;;;;1.21;34.88;97830.16;4986050;28;20050;-74
2022/04/04 01:24:51;;;;;;;7.80;2.35;;;;;;;1.16;35.07;97821.22;4955297;28;20055;-75
2022/04/04 01:27:17;;;;;;;6.80;2.17;;;;;;;1.20;35.01;97827.72;4978389;28;20059;-75
2022/04/04 01:29:44;;;;;;;8.20;2.20;;;;;;;1.16;35.08;97830.13;4969105;28;20045;-75
2022/04/04 01:32:11;;;;;;;5.75;2.20;;;;;;;1.19;35.17;97829.59;4969559;28;20491;-74
2022/04/04 01:34:37;;;;;;;6.63;2.10;;;;;;;1.14;35.19;97834.97;4970192;28;20538;-75
2022/04/04 01:37:04;;;;;;;8.15;2.28;;;;;;;1.10;35.33;97833.88;4978673;28;20075;-75
2022/04/04 01:39:31;;;;;;;9.73;2.30;;;;;;;1.09;35.45;97835.75;4929603;29;20218;-75
2022/04/04 01:41:58;;;;;;;8.43;2.30;;;;;;;1.09;35.46;97843.00;4967746;28;20047;-75
2022/04/04 01:44:24;;;;;;;12.43;2.30;;;;;;;1.10;35.55;97844.66;4970239;28;20042;-73
2022/04/04 01:46:50;;;;;;;6.30;2.10;;;;;;;1.08;35.30;97852.97;4976799;28;20054;-74
2022/04/04 01:49:17;;;;;;;4.85;2.10;;;;;;;1.08;35.48;97854.84;4969434;28;20507;-75
2022/04/04 01:51:44;;;;;;;6.22;2.25;;;;;;;1.05;35.50;97848.09;4957419;28;20471;-76
2022/04/04 01:54:10;;;;;;;5.85;2.20;;;;;;;1.01;35.64;97848.88;4985504;28;20074;-75
2022/04/04 01:56:36;;;;;;;7.22;2.40;;;;;;;1.01;35.89;97856.97;4968378;28;20043;-75
2022/04/04 01:59:04;;;;;;;9.90;2.38;;;;;;;0.99;35.97;97854.50;4970685;28;20046;-76
2022/04/04 02:01:34;;;;;;;7.65;2.38;;;;;;;0.91;35.86;97850.44;4959519;28;20427;-75
2022/04/04 02:04:02;;;;;;;6.80;2.38;;;;;;;0.94;36.15;97859.88;4970671;28;20495;-75
2022/04/04 02:06:28;;;;;;;6.43;2.22;;;;;;;0.92;36.32;97857.44;4969966;28;20105;-75
2022/04/04 02:08:54;;;;;;;8.25;2.40;;;;;;;0.79;36.33;97842.56;4970530;28;20049;-74
2022/04/04 02:11:22;;;;;;;7.38;2.60;;;;;;;0.88;36.47;97860.91;4968402;28;20047;-75
2022/04/04 02:13:48;;;;;;;6.55;2.47;;;;;;;0.78;36.52;97854.38;4970998;28;20104;-75
2022/04/04 02:16:15;;;;;;;10.00;2.70;;;;;;;0.84;36.32;97868.69;4936984;28;20058;-74
2022/04/04 02:18:41;;;;;;;6.97;2.50;;;;;;;0.85;36.48;97864.94;4970338;28;20051;-74
2022/04/04 02:21:09;;;;;;;10.07;2.65;;;;;;;0.87;36.49;97865.47;4969074;28;20137;-75
2022/04/04 02:23:36;;;;;;;7.82;2.30;;;;;;;0.82;36.93;97860.06;4969877;28;20500;-74
2022/04/04 02:26:03;;;;;;;7.43;2.67;;;;;;;0.87;36.64;97875.44;4981707;28;20535;-74
2022/04/04 02:28:30;;;;;;;6.15;2.30;;;;;;;0.81;36.78;97863.84;4977611;28;20054;-74
2022/04/04 02:30:57;;;;;;;8.55;3.05;;;;;;;0.84;36.67;97871.38;4967311;28;20566;-74
2022/04/04 02:33:24;;;;;;;7.75;2.70;;;;;;;0.82;36.62;97876.22;4969069;28;20047;-74
2022/04/04 02:35:52;;;;;;;7.68;2.70;;;;;;;0.82;36.79;97879.69;4967942;28;20063;-73
2022/04/04 02:38:19;;;;;;;14.07;2.70;;;;;;;0.81;36.77;97883.47;4988732;28;20051;-74
2022/04/04 02:40:46;;;;;;;6.43;2.67;;;;;;;0.80;36.80;97886.44;4969567;28;20042;-74
2022/04/04 02:43:12;;;;;;;6.03;2.42;;;;;;;0.76;36.71;97878.06;4969064;28;20113;-74
2022/04/04 02:45:38;;;;;;;8.80;3.05;;;;;;;0.76;36.93;97885.31;4980816;28;20058;-74
2022/04/04 02:48:06;;;;;;;7.85;2.72;;;;;;;0.77;36.92;97889.59;4977477;28;20466;-74
2022/04/04 02:50:34;;;;;;;7.25;2.75;;;;;;;0.72;36.69;97890.41;4977108;28;20130;-73
2022/04/04 02:53:00;;;;;;;7.93;2.92;;;;;;;0.79;36.98;97900.94;4968832;28;20112;-73
2022/04/04 02:58:12;;;;;;;9.65;2.67;;;;;;;0.80;37.04;97907.97;4969936;28;20074;-72
2022/04/04 03:00:38;;;;;;;10.00;2.75;;;;;;;0.68;37.00;97895.47;4968688;28;20049;-73
2022/04/04 03:03:04;;;;;;;11.70;3.10;;;;;;;0.77;37.00;97908.44;4984985;28;20121;-70
2022/04/04 03:05:31;;;;;;;9.80;2.80;;;;;;;0.76;37.20;97913.03;4969755;28;20043;-72
2022/04/04 03:07:58;;;;;;;10.80;2.50;;;;;;;0.75;37.08;97913.28;4976553;28;20265;-73
2022/04/04 03:10:24;;;;;;;8.32;2.90;;;;;;;0.73;37.19;97916.25;4969243;28;20073;-71
2022/04/04 03:12:51;;;;;;;7.32;2.85;;;;;;;0.66;37.38;97911.06;4969630;28;20423;-70
2022/04/04 03:15:22;;;;;;;8.00;2.88;;;;;;;0.73;37.09;97918.09;4973338;28;20050;-71
2022/04/04 03:17:51;;;;;;;12.25;3.08;;;;;;;0.74;37.25;97917.84;4973123;28;20061;-70
2022/04/04 03:20:18;;;;;;;10.10;2.85;;;;;;;0.75;37.19;97924.03;4972205;28;20097;-71
2022/04/04 03:22:46;;;;;;;;;;;;;;;0.76;37.08;97928.34;4972688;28;20061;-71
2022/04/04 03:25:14;;;;;;;8.27;2.97;;;;;;;0.75;37.42;97927.56;4978749;28;20027;-71
2022/04/04 03:27:42;;;;;;;10.50;2.90;;;;;;;0.72;37.43;97929.94;4972385;28;20070;-72
2022/04/04 03:30:12;;;;;;;6.97;2.67;;;;;;;0.74;37.43;97927.78;4971368;28;20058;-71
2022/04/04 03:32:39;;;;;;;9.90;2.70;;;;;;;0.77;37.33;97933.47;4971950;28;20081;-72
2022/04/04 03:35:07;;;;;;;11.27;3.45;;;;;;;0.73;37.58;97935.06;4963929;28;20434;-73
2022/04/04 03:37:34;;;;;;;27.40;10.73;;;;;;;0.80;37.34;97938.34;4971744;28;20039;-73
2022/04/04 03:40:01;;;;;;;39.03;19.38;;;;;;;0.80;37.33;97934.88;4972360;28;20050;-73
2022/04/04 03:42:28;;;;;;;33.78;17.05;;;;;;;0.81;37.52;97936.47;4971608;28;20150;-74
2022/04/04 03:44:54;;;;;;;28.05;13.38;;;;;;;0.81;37.44;97939.97;4955584;28;20498;-73
2022/04/04 03:47:22;;;;;;;22.30;9.27;;;;;;;0.84;37.45;97946.72;4971874;28;20047;-73
2022/04/04 03:49:50;;;;;;;12.27;5.47;;;;;;;0.81;37.38;97939.97;4963589;28;20493;-73
2022/04/04 03:52:16;;;;;;;13.30;4.35;;;;;;;0.87;37.60;97943.53;4972239;28;20046;-72
2022/04/04 03:54:42;;;;;;;15.45;3.90;;;;;;;0.85;37.51;97945.66;4970369;28;20046;-72
2022/04/04 03:57:09;;;;;;;16.48;3.60;;;;;;;0.76;37.51;97929.19;4972487;28;20086;-72
2022/04/04 03:59:36;;;;;;;10.60;3.35;;;;;;;0.90;37.30;97958.34;4973931;28;20051;-71
2022/04/04 04:02:02;;;;;;;13.85;3.35;;;;;;;0.92;37.42;97954.31;4952793;28;20050;-73
2022/04/04 04:04:28;;;;;;;8.57;2.97;;;;;;;0.94;37.35;97954.06;4973707;28;20049;-72
2022/04/04 04:06:55;;;;;;;9.48;3.35;;;;;;;0.87;37.21;97937.34;4971917;28;20523;-72
2022/04/04 04:09:21;;;;;;;13.50;3.60;;;;;;;1.04;37.17;97954.16;4965824;28;20146;-73
2022/04/04 04:11:48;;;;;;;16.60;7.65;;;;;;;1.14;37.06;97953.41;4968030;28;20049;-72
2022/04/04 04:14:15;;;;;;;28.42;9.63;;;;;;;1.07;37.11;97950.13;4965690;28;20058;-73
2022/04/04 04:16:41;;;;;;;17.08;7.28;;;;;;;1.09;37.09;97961.44;4972351;28;20074;-72
2022/04/04 04:20:19;;;;;;;15.60;4.82;;;;;;;1.10;37.16;97955.00;4967070;28;20046;-73
2022/04/04 04:21:54;;;;;;;11.17;4.13;;;;;;;1.14;37.03;97958.81;4954066;28;20431;-73
2022/04/04 04:24:21;;;;;;;12.55;3.80;;;;;;;1.23;36.96;97964.53;4971537;28;20047;-73
2022/04/04 04:26:47;;;;;;;9.25;4.00;;;;;;;1.27;36.78;97969.13;4972073;28;20039;-73
2022/04/04 04:29:13;;;;;;;12.20;3.50;;;;;;;1.29;36.90;97962.69;4954354;28;20515;-73
2022/04/04 04:31:40;;;;;;;12.43;3.80;;;;;;;1.29;36.78;97957.28;4969514;28;20035;-72
2022/04/04 04:34:06;;;;;;;8.57;3.83;;;;;;;1.34;36.70;97960.84;4970927;28;20055;-72
2022/04/04 04:36:33;;;;;;;22.40;8.13;;;;;;;1.46;36.57;97966.03;4962193;28;20415;-72
2022/04/04 04:38:59;;;;;;;17.92;5.82;;;;;;;1.49;36.37;97960.09;4969237;28;20070;-74
2022/04/04 04:41:25;;;;;;;13.38;5.50;;;;;;;1.54;36.10;97953.94;4970721;28;20051;-73
2022/04/04 04:43:52;;;;;;;11.10;4.57;;;;;;;1.56;36.20;97962.56;4972139;28;20039;-72
2022/04/04 04:46:18;;;;;;;12.45;4.28;;;;;;;1.59;36.14;97953.16;4971498;28;20133;-72
2022/04/04 04:48:44;;;;;;;23.45;4.28;;;;;;;1.70;36.03;97958.34;4970063;28;20046;-73
2022/04/04 04:51:11;;;;;;;9.60;3.90;;;;;;;1.76;35.76;97971.84;4970411;28;20051;-73
2022/04/04 04:53:38;;;;;;;15.32;4.07;;;;;;;1.67;35.81;97952.66;4971453;28;20153;-73
2022/04/04 04:56:04;;;;;;;9.75;3.90;;;;;;;1.80;35.87;97968.34;4969603;28;20050;-73
2022/04/04 04:58:31;;;;;;;9.48;3.55;;;;;;;1.88;35.59;97972.44;4985428;28;20511;-72
2022/04/04 05:00:57;;;;;;;14.40;5.32;;;;;;;1.98;35.76;97969.81;4970447;28;20054;-74
2022/04/04 05:03:27;;;;;;;12.55;4.03;;;;;;;2.00;35.68;97974.13;4986759;28;20108;-73
2022/04/04 05:05:54;;;;;;;9.32;3.20;;;;;;;2.02;35.64;97967.38;4970726;28;20050;-73
2022/04/04 05:08:20;;;;;;;8.70;3.20;;;;;;;2.04;35.48;97969.81;4947819;28;20490;-70
2022/04/04 05:10:47;;;;;;;8.27;2.87;;;;;;;2.05;35.20;97969.56;4971316;28;20310;-70
2022/04/04 05:13:16;;;;;;;8.38;3.03;;;;;;;2.07;35.20;97970.09;4954480;28;20077;-72
2022/04/04 05:15:44;;;;;;;10.68;3.30;;;;;;;2.18;35.22;97965.56;4971277;28;20386;-70
2022/04/04 05:18:10;;;;;;;20.80;5.85;;;;;;;2.22;35.03;97972.03;4969746;28;20055;-71
2022/04/04 05:20:36;;;;;;;18.15;6.88;;;;;;;2.27;35.05;97973.94;4971305;28;20054;-70
2022/04/04 05:23:02;;;;;;;15.40;5.97;;;;;;;2.36;35.08;97971.53;4954280;28;20054;-71
2022/04/04 05:25:29;;;;;;;15.27;5.50;;;;;;;2.41;34.97;97972.38;4966991;28;20555;-70
2022/04/04 05:27:57;;;;;;;9.95;4.03;;;;;;;2.45;34.80;97972.66;4970433;28;20109;-70
2022/04/04 05:30:23;;;;;;;9.82;3.75;;;;;;;2.60;34.43;97974.56;4986052;28;20133;-69
2022/04/04 05:32:49;;;;;;;16.17;3.85;;;;;;;2.67;34.49;97971.59;4969692;28;20050;-72
2022/04/04 05:35:19;;;;;;;9.05;3.03;;;;;;;2.77;34.48;97973.50;4964565;28;20046;-71
2022/04/04 05:37:45;;;;;;;8.50;3.10;;;;;;;2.87;34.76;97970.81;4953772;28;20050;-72
2022/04/04 05:40:11;;;;;;;9.88;3.20;;;;;;;2.91;34.39;97968.41;4953697;28;20047;-72
2022/04/04 05:42:39;;;;;;;7.60;2.90;;;;;;;3.03;34.22;97977.03;4986047;28;20047;-70
2022/04/04 05:45:07;;;;;;;9.05;3.03;;;;;;;2.99;34.05;97962.44;4968114;28;20057;-72
2022/04/04 05:47:34;;;;;;;9.40;2.88;;;;;;;3.11;34.01;97978.38;4971327;28;20054;-71
2022/04/04 05:50:00;;;;;;;7.10;2.55;;;;;;;3.17;33.94;97979.19;4966966;28;20059;-71
2022/04/04 05:52:26;;;;;;;7.65;2.80;;;;;;;3.21;33.69;97978.38;4951431;29;20059;-72
2022/04/04 05:54:57;;;;;;;8.65;2.67;;;;;;;3.27;33.58;97981.91;4964536;28;20047;-71
2022/04/04 05:57:25;;;;;;;10.68;2.63;;;;;;;3.29;33.59;97981.63;4952396;29;20051;-70
2022/04/04 05:59:52;;;;;;;6.35;2.45;;;;;;;3.43;33.17;97977.28;4952522;28;20080;-70
2022/04/04 06:02:22;;;;;;;7.78;2.80;;;;;;;3.57;32.83;97974.00;4948903;28;20567;-71
2022/04/04 06:04:49;;;;;;;12.50;5.18;;;;;;;3.54;32.88;97972.69;4971125;28;20475;-73
2022/04/04 06:07:15;;;;;;;19.38;8.43;;;;;;;3.67;32.78;97982.94;4970104;28;20050;-72
2022/04/04 06:09:41;;;;;;;15.27;6.10;;;;;;;3.73;32.31;97986.41;4970288;28;20043;-72
2022/04/04 06:12:08;;;;;;;9.68;4.50;;;;;;;3.76;32.51;97979.66;4968823;28;20075;-72
2022/04/04 06:14:34;;;;;;;9.23;3.50;;;;;;;3.83;32.37;97977.47;4970358;28;20392;-72
2022/04/04 06:17:05;;;;;;;10.52;3.50;;;;;;;3.89;32.36;97981.78;4968471;28;20051;-72
2022/04/04 06:19:31;;;;;;;8.23;3.15;;;;;;;4.00;32.32;97981.75;4968514;28;20062;-71
2022/04/04 06:21:58;;;;;;;7.57;2.75;;;;;;;4.00;32.26;97985.25;4968089;28;20459;-73
2022/04/04 06:24:24;;;;;;;7.22;2.78;;;;;;;4.05;32.24;97990.63;4974314;28;20057;-73
2022/04/04 06:26:50;;;;;;;12.23;5.82;;;;;;;4.21;31.98;97987.88;4967852;28;20054;-69
2022/04/04 06:29:16;;;;;;;27.88;13.60;;;;;;;4.33;32.06;97980.25;4970255;28;20046;-68
2022/04/04 06:31:44;;;;;;;18.40;7.72;;;;;;;4.40;32.01;97990.75;4968615;28;20526;-72
2022/04/04 06:34:11;;;;;;;10.50;4.47;;;;;;;4.43;31.86;97995.63;4929265;28;20043;-70
2022/04/04 06:36:38;;;;;;;8.25;3.50;;;;;;;4.35;31.70;97990.81;4953881;28;20492;-72
2022/04/04 06:39:04;;;;;;;7.97;3.13;;;;;;;4.40;31.75;97991.59;4961008;28;20146;-74
2022/04/04 06:41:31;;;;;;;8.32;3.15;;;;;;;4.57;31.38;97995.84;4970329;28;20352;-71
2022/04/04 06:43:58;;;;;;;7.20;2.72;;;;;;;4.52;31.41;97985.00;4960503;28;20121;-70
2022/04/04 06:46:25;;;;;;;9.32;2.85;;;;;;;4.69;31.25;97998.19;4968902;28;20078;-70
2022/04/04 06:48:52;;;;;;;13.77;2.75;;;;;;;4.81;31.03;98003.25;4973663;28;20051;-69
2022/04/04 06:51:19;;;;;;;8.60;2.90;;;;;;;4.84;31.18;97997.31;4973743;28;20055;-70
2022/04/04 06:53:46;;;;;;;7.25;2.60;;;;;;;4.94;31.19;97997.22;4980789;28;20543;-70
2022/04/04 06:56:12;;;;;;;10.50;2.85;;;;;;;4.99;31.14;97990.13;4969393;28;20061;-70
2022/04/04 06:58:38;;;;;;;7.03;2.78;;;;;;;5.02;31.09;97997.72;4978090;28;20085;-69
2022/04/04 07:01:05;;;;;;;6.15;2.55;;;;;;;5.13;30.91;97993.03;4973428;28;20587;-70
2022/04/04 07:03:31;;;;;;;7.30;2.78;;;;;;;5.27;30.95;97998.59;4972222;28;20141;-70
2022/04/04 07:05:57;;;;;;;7.72;2.80;;;;;;;5.36;30.95;97986.84;4965493;28;20499;-73
2022/04/04 07:08:24;;;;;;;7.03;2.67;;;;;;;5.45;30.61;97992.47;4973289;28;20054;-73
2022/04/04 07:10:51;;;;;;;8.68;2.85;;;;;;;5.44;30.47;97982.72;4973020;28;20059;-72
2022/04/04 07:13:18;;;;;;;6.70;2.42;;;;;;;5.71;30.70;97986.81;4964911;28;20348;-74
2022/04/04 07:15:44;;;;;;;7.25;2.65;;;;;;;5.81;30.56;97994.03;4973333;28;20059;-73
2022/04/04 07:18:12;;;;;;;7.85;2.90;;;;;;;5.92;30.19;97992.00;4971012;28;20109;-74
2022/04/04 07:20:38;;;;;;;6.30;2.50;;;;;;;5.96;30.35;97998.50;4959072;28;20105;-72
2022/04/04 07:23:05;;;;;;;9.07;2.80;;;;;;;6.00;30.08;97998.69;4971935;28;20154;-77
2022/04/04 07:25:32;;;;;;;6.28;2.50;;;;;;;6.05;30.12;98002.19;4971655;28;20074;-77
2022/04/04 07:27:58;;;;;;;5.68;2.08;;;;;;;6.07;29.87;97991.84;4968268;28;20073;-77
2022/04/04 07:30:26;;;;;;;5.93;2.30;;;;;;;6.09;30.13;97981.56;4970683;28;20043;-77
2022/04/04 07:32:52;;;;;;;8.25;2.83;;;;;;;6.18;29.93;97980.91;4954690;28;20085;-77
2022/04/04 07:35:20;;;;;;;6.75;2.30;;;;;;;6.28;29.53;97986.22;4970577;28;20198;-77
2022/04/04 07:37:48;;;;;;;4.32;1.77;;;;;;;6.25;29.18;97981.38;4953868;28;20067;-72
2022/04/04 07:40:17;;;;;;;6.03;2.10;;;;;;;6.37;28.87;97983.66;4971290;28;20062;-73
2022/04/04 07:42:45;;;;;;;13.90;5.90;;;;;;;6.40;28.95;97983.06;4969270;28;20062;-71
2022/04/04 07:45:16;;;;;;;13.05;5.97;;;;;;;6.47;29.64;97980.78;4970185;28;20070;-73
2022/04/04 07:47:43;;;;;;;9.40;3.92;;;;;;;6.60;29.32;97970.28;4968101;28;20051;-72
2022/04/04 07:50:11;;;;;;;6.85;2.30;;;;;;;6.65;28.95;97981.09;4955112;28;20077;-72
2022/04/04 07:52:37;;;;;;;5.25;1.83;;;;;;;6.70;28.76;97985.63;4969337;28;20480;-77
2022/04/04 07:55:05;;;;;;;6.50;1.80;;;;;;;6.76;28.38;97984.47;4962341;28;20204;-78
2022/04/04 07:57:31;;;;;;;5.38;2.00;;;;;;;6.91;28.18;97984.25;4955786;28;20054;-78
2022/04/04 07:59:58;;;;;;;5.82;1.80;;;;;;;7.08;27.91;97980.97;4971205;28;20047;-79
2022/04/04 08:02:24;;;;;;;17.10;7.68;;;;;;;7.14;27.83;97978.22;4969510;28;20094;-77
2022/04/04 08:04:50;;;;;;;11.65;4.57;;;;;;;7.21;27.75;97992.22;4970556;28;20070;-78
2022/04/04 08:07:19;;;;;;;8.85;3.10;;;;;;;7.28;27.46;97970.91;4986254;28;20046;-78
2022/04/04 08:09:46;;;;;;;6.47;2.50;;;;;;;7.41;27.33;97988.34;4972547;28;20114;-76
2022/04/04 08:12:12;;;;;;;5.03;2.05;;;;;;;7.50;27.08;97983.84;4969205;28;20050;-76
2022/04/04 08:14:39;;;;;;;5.30;1.80;;;;;;;7.47;26.43;97975.47;4984245;28;20087;-78
2022/04/04 08:17:07;;;;;;;3.75;1.67;;;;;;;7.48;26.58;97975.16;4971625;28;20066;-77
2022/04/04 08:19:33;;;;;;;9.00;3.55;;;;;;;7.37;26.63;97938.41;4971132;28;20047;-72
2022/04/04 08:22:00;;;;;;;8.60;2.60;;;;;;;7.61;26.38;97973.59;4972004;28;20051;-75
2022/04/04 08:24:27;;;;;;;10.25;2.50;;;;;;;7.69;26.21;97968.56;4971958;28;20061;-73
2022/04/04 08:26:53;;;;;;;7.57;2.15;;;;;;;7.85;26.34;97979.97;4971354;28;20049;-73
2022/04/04 08:29:20;;;;;;;5.32;2.00;;;;;;;7.94;26.36;97975.41;4972595;28;20057;-73
2022/04/04 08:31:46;;;;;;;6.75;2.10;;;;;;;8.10;26.13;97978.66;4970689;28;20050;-72
2022/04/04 08:34:13;;;;;;;6.20;1.90;;;;;;;8.13;26.28;97963.66;4970902;28;20062;-73
2022/04/04 08:36:41;;;;;;;5.93;1.60;;;;;;;8.25;25.83;97979.47;4969953;28;20074;-72
2022/04/04 08:39:07;;;;;;;3.90;1.93;;;;;;;8.33;25.80;97976.00;4985830;28;20467;-73
2022/04/04 08:41:35;;;;;;;4.40;1.55;;;;;;;8.35;25.73;97973.78;4969822;28;20310;-71
2022/04/04 08:44:03;;;;;;;5.28;1.70;;;;;;;8.54;25.81;97981.88;4985488;28;20061;-73
2022/04/04 08:46:30;;;;;;;;;;;;;;;8.67;25.43;97979.41;4971677;28;20145;-73
2022/04/04 08:48:58;;;;;;;13.68;5.93;;;;;;;8.78;25.57;97976.16;4970830;28;20028;-73
2022/04/04 08:51:25;;;;;;;9.95;3.30;;;;;;;8.94;25.62;97970.34;4971490;28;20051;-72
2022/04/04 08:53:51;;;;;;;8.63;2.67;;;;;;;9.12;25.52;97976.75;4970895;28;20070;-73
2022/04/04 08:56:20;;;;;;;8.38;2.28;;;;;;;9.17;25.47;97968.44;4972367;28;20055;-74
2022/04/04 08:58:46;;;;;;;4.57;1.67;;;;;;;9.41;25.46;97975.50;4971489;28;20054;-74
2022/04/04 09:01:12;;;;;;;4.38;1.90;;;;;;;9.55;25.20;97982.81;4969647;28;20542;-79
2022/04/04 09:03:39;;;;;;;3.10;1.60;;;;;;;9.62;25.18;97974.97;4966233;28;20779;-75
2022/04/04 09:06:05;;;;;;;5.18;1.73;;;;;;;9.72;25.12;97961.06;4971834;28;20181;-75
2022/04/04 09:08:48;;;;;;;3.70;1.52;;;;;;;9.90;25.09;97966.59;4971989;28;20046;-75
2022/04/04 09:11:15;;;;;;;4.07;1.60;;;;;;;9.98;24.98;97975.94;4951864;28;20193;-75
2022/04/04 09:13:42;;;;;;;3.47;1.42;;;;;;;10.04;24.83;97961.00;4968058;28;20529;-75
2022/04/04 09:16:10;;;;;;;6.20;1.90;;;;;;;10.06;24.43;97966.94;4971261;28;20050;-76
2022/04/04 09:18:49;;;;;;;4.88;1.77;;;;;;;10.11;24.43;97963.28;4954803;28;20049;-77
2022/04/04 09:21:33;;;;;;;4.38;1.85;;;;;;;10.26;24.36;97976.50;4970247;28;20050;-76
2022/04/04 09:24:07;;;;;;;5.55;1.73;;;;;;;10.36;24.41;97976.22;4971928;28;20564;-76
2022/04/04 09:26:35;;;;;;;5.25;2.10;;;;;;;10.44;24.43;97968.38;4972058;28;20047;-75
2022/04/04 09:29:09;;;;;;;7.15;2.13;;;;;;;10.42;24.54;97970.63;4981331;28;20529;-76
2022/04/04 09:31:36;;;;;;;6.78;2.10;;;;;;;10.53;24.72;97969.19;4963558;28;20050;-73
2022/04/04 09:34:04;;;;;;;7.82;2.45;;;;;;;10.58;24.49;97971.78;4971986;28;20050;-74
2022/04/04 09:36:31;;;;;;;5.25;2.10;;;;;;;10.74;24.38;97982.22;4970820;28;20052;-74
2022/04/04 09:39:04;;;;;;;6.45;2.30;;;;;;;10.81;24.41;97968.09;4971381;28;20125;-69
2022/04/04 09:41:30;;;;;;;6.03;2.70;;;;;;;10.88;24.29;97980.16;4970473;28;20527;-70
2022/04/04 09:43:59;;;;;;;8.10;2.33;;;;;;;10.97;24.26;97971.94;4980073;28;20046;-69
2022/04/04 09:46:32;;;;;;;9.68;2.33;;;;;;;11.03;24.27;97970.69;4994191;28;20145;-74
2022/04/04 09:49:03;;;;;;;7.50;2.50;;;;;;;11.19;24.47;97979.19;4976921;28;20464;-70
2022/04/04 09:51:40;;;;;;;8.05;2.30;;;;;;;11.23;24.51;97975.78;4978957;28;20173;-71
2022/04/04 09:54:07;;;;;;;;;;;;;;;11.21;23.91;97976.91;4977929;28;20066;-70
2022/04/04 09:56:33;;;;;;;10.43;2.42;;;;;;;10.91;24.49;97965.84;4975864;28;19933;-70
2022/04/04 09:59:02;;;;;;;6.32;2.53;;;;;;;11.03;24.67;97975.34;4971056;28;20139;-70
2022/04/04 10:01:31;;;;;;;9.60;2.40;;;;;;;11.25;24.36;97984.50;4967514;28;20057;-70
2022/04/04 10:04:00;;;;;;;6.68;2.47;;;;;;;11.47;24.28;97988.94;4970822;28;20047;-69
2022/04/04 10:06:28;;;;;;;6.55;2.20;;;;;;;11.62;23.98;97979.44;4971709;28;20051;-70
2022/04/04 10:08:57;;;;;;;5.45;2.17;;;;;;;11.68;24.11;97982.81;4950449;28;20150;-69
2022/04/04 10:11:24;;;;;;;5.88;2.38;;;;;;;11.80;23.95;97976.63;4990657;28;20139;-71
2022/04/04 10:13:54;;;;;;;5.95;2.30;;;;;;;11.88;24.01;97967.59;4976903;28;20077;-74
2022/04/04 10:16:23;;;;;;;9.25;2.40;;;;;;;11.85;23.85;97984.66;4987092;28;20138;-74
2022/04/04 10:18:51;;;;;;;5.80;1.90;;;;;;;11.88;23.72;97968.38;4970601;28;20435;-76
2022/04/04 10:21:18;;;;;;;7.95;1.90;;;;;;;12.05;23.64;97974.97;4977609;28;20051;-75
2022/04/04 10:23:47;;;;;;;6.05;2.20;;;;;;;11.97;23.96;97964.81;4973303;28;20047;-76
2022/04/04 10:26:14;;;;;;;6.40;2.00;;;;;;;12.10;23.61;97977.53;4978784;28;20047;-76
2022/04/04 10:28:44;;;;;;;7.05;2.30;;;;;;;12.01;23.72;97972.06;4973822;28;20050;-76
2022/04/04 10:31:12;;;;;;;5.82;2.20;;;;;;;11.95;24.08;97967.88;4970911;28;20046;-75
2022/04/04 10:33:38;;;;;;;9.57;4.07;;;;;;;12.08;24.23;97970.75;4973974;28;20066;-78
2022/04/04 10:36:07;;;;;;;10.10;4.63;;;;;;;12.26;23.96;97974.22;4958344;28;20134;-76
2022/04/04 10:38:35;;;;;;;7.35;2.35;;;;;;;12.32;24.41;97970.94;4971528;28;20046;-76
2022/04/04 10:41:06;;;;;;;5.97;2.25;;;;;;;12.33;24.48;97969.03;4973306;28;20511;-77
2022/04/04 10:43:36;;;;;;;7.82;2.72;;;;;;;12.49;24.37;97977.47;4968991;28;20050;-75
2022/04/04 10:46:08;;;;;;;8.13;1.90;;;;;;;12.54;24.04;97974.53;4938401;29;20504;-75
2022/04/04 10:48:37;;;;;;;8.73;2.13;;;;;;;12.46;24.26;97980.88;4961464;28;20078;-75
2022/04/04 10:51:17;;;;;;;7.47;1.88;;;;;;;12.59;24.03;97979.81;4973779;28;20105;-74
2022/04/04 10:53:48;;;;;;;5.35;1.90;;;;;;;12.65;24.03;97976.91;4988488;28;20061;-75
2022/04/04 10:56:20;;;;;;;5.35;2.00;;;;;;;12.85;23.99;97967.88;4970488;28;20054;-76
2022/04/04 10:58:47;;;;;;;5.50;2.25;;;;;;;13.08;23.92;97972.22;4972631;28;20050;-75
2022/04/04 11:01:15;;;;;;;7.47;2.63;;;;;;;13.13;23.35;97966.50;4966631;28;20082;-75
2022/04/04 11:03:56;;;;;;;11.75;5.07;;;;;;;13.15;23.36;97976.00;4963799;28;20048;-76
2022/04/04 11:09:26;;;;;;;6.70;2.28;;;;;;;13.30;22.44;97955.38;4958821;28;20385;-77
2022/04/04 11:12:08;;;;;;;3.85;1.88;;;;;;;13.50;22.45;97955.66;4971050;28;20053;-75
2022/04/04 11:15:36;;;;;;;4.10;1.70;;;;;;;13.62;21.96;97960.41;4970676;28;20050;-76
2022/04/04 11:18:03;;;;;;;4.55;1.70;;;;;;;13.60;22.31;97963.47;4948120;28;20475;-75
2022/04/04 11:20:33;;;;;;;4.27;1.80;;;;;;;13.87;22.30;97965.94;4970624;28;20051;-76
2022/04/04 11:23:01;;;;;;;3.92;1.70;;;;;;;13.82;22.18;97964.22;4973835;28;20307;-76
2022/04/04 11:25:33;;;;;;;5.22;1.88;;;;;;;13.94;22.09;97960.69;4969759;28;20134;-76
2022/04/04 11:28:00;;;;;;;4.85;1.60;;;;;;;13.81;22.00;97983.78;4972304;28;20113;-76
2022/04/04 11:30:27;;;;;;;4.13;1.75;;;;;;;13.68;21.98;97970.03;4975703;28;20050;-77
2022/04/04 11:32:57;;;;;;;4.85;1.70;;;;;;;13.26;22.19;97968.16;4988280;28;20050;-76
2022/04/04 11:35:27;;;;;;;4.85;1.80;;;;;;;13.21;21.61;97965.63;4971641;28;20419;-76
2022/04/04 11:37:56;;;;;;;7.47;1.98;;;;;;;13.71;21.10;97969.34;4970537;28;20406;-75
2022/04/04 11:40:25;;;;;;;5.20;1.85;;;;;;;14.04;20.60;97965.72;4968601;28;20138;-76
2022/04/04 11:42:52;;;;;;;3.20;1.60;;;;;;;14.64;21.12;97966.38;4968598;28;20050;-75
2022/04/04 11:45:21;;;;;;;3.58;1.60;;;;;;;15.10;20.90;97964.19;4978452;28;20051;-76
2022/04/04 11:47:55;;;;;;;6.13;2.05;;;;;;;15.45;20.22;97960.84;4966995;28;20127;-76